Time;durP1;ratioP1;P1;durP2;ratioP2;P2;SDS_P1;SDS_P2;PMS_P1;PMS_P2;Temp;Humidity;BMP_temperature;BMP_pressure;BME280_temperature;BME280_humidity;BME280_pressure;Samples;Min_cycle;Max_cycle;Signal;HPM_P1;HPM_P2
2023/10/05 08:34:45;;;;;;;9.77;3.83;;;16.70;99.90;;;;;;6228593;22;20216;-83
2023/10/05 08:37:27;;;;;;;9.53;3.77;;;16.30;99.90;;;;;;6199079;23;20220;-82
2023/10/05 08:40:06;;;;;;;9.27;3.50;;;16.10;99.90;;;;;;6244257;23;20173;-81
2023/10/05 08:42:41;;;;;;;8.43;3.33;;;15.90;99.90;;;;;;6244142;23;20264;-79
2023/10/05 08:45:23;;;;;;;8.43;3.57;;;15.90;99.90;;;;;;6217406;23;20165;-82
2023/10/05 09:16:41;;;;;;;10.60;3.60;;;16.30;99.90;;;;;;6180067;22;20681;-89
2023/10/05 09:19:25;;;;;;;10.77;3.90;;;16.70;99.90;;;;;;6250602;22;20200;-78
2023/10/05 09:22:22;;;;;;;12.57;3.47;;;16.90;99.90;;;;;;6247066;22;20267;-80
2023/10/05 09:24:58;;;;;;;22.43;5.07;;;16.60;99.90;;;;;;6220461;23;20618;-80
2023/10/05 09:27:51;;;;;;;9.03;3.50;;;16.50;99.90;;;;;;6275957;22;20161;-80
2023/10/05 09:30:29;;;;;;;7.67;3.40;;;16.70;99.90;;;;;;6248224;22;20654;-80
2023/10/05 09:33:15;;;;;;;9.47;3.60;;;16.60;99.90;;;;;;6244555;23;20472;-80
2023/10/05 09:41:23;;;;;;;;;;;;;;;;;;;;;
2023/10/05 09:44:57;;;;;;;13.20;4.50;;;16.30;99.90;;;;;;6117467;23;20623;-79
2023/10/05 09:47:37;;;;;;;10.80;4.00;;;16.20;99.90;;;;;;6122807;23;20174;-80
2023/10/05 09:50:21;;;;;;;10.80;3.43;;;16.20;99.90;;;;;;6100870;23;20169;-80
2023/10/05 09:52:51;;;;;;;9.77;3.07;;;16.10;99.90;;;;;;6122549;23;20184;-81
2023/10/05 09:55:29;;;;;;;9.83;3.33;;;16.00;99.90;;;;;;6098614;23;20534;-79
2023/10/05 09:58:18;;;;;;;10.77;3.20;;;16.10;99.90;;;;;;6098444;23;20204;-81
2023/10/05 10:01:10;;;;;;;8.00;3.60;;;16.20;99.90;;;;;;6078471;23;20287;-81
2023/10/05 10:03:48;;;;;;;8.03;3.60;;;16.40;99.90;;;;;;6094098;23;20225;-82
2023/10/05 10:06:40;;;;;;;8.00;3.10;;;16.30;99.90;;;;;;6098813;23;20196;-81
2023/10/05 10:09:26;;;;;;;8.30;2.93;;;16.50;99.90;;;;;;6076301;23;20177;-81
2023/10/05 10:12:11;;;;;;;6.83;3.10;;;16.70;99.90;;;;;;6141191;23;20177;-81
2023/10/05 10:18:45;;;;;;;6.90;2.83;;;16.40;99.90;;;;;;6189919;23;20469;-81
2023/10/05 10:22:11;;;;;;;8.10;3.10;;;16.40;99.90;;;;;;6245009;23;20243;-81
2023/10/05 10:24:45;;;;;;;8.50;2.80;;;16.30;99.90;;;;;;6209335;23;20227;-80
2023/10/05 10:27:30;;;;;;;5.90;3.03;;;16.30;99.90;;;;;;6211075;23;20169;-83
2023/10/05 10:30:12;;;;;;;9.43;3.10;;;16.30;99.90;;;;;;6213731;23;20179;-81
2023/10/05 10:33:31;;;;;;;10.23;3.40;;;16.30;99.90;;;;;;6190821;23;20181;-80
2023/10/05 10:36:22;;;;;;;8.93;3.20;;;16.10;99.90;;;;;;6176263;23;20195;-81
2023/10/05 10:39:21;;;;;;;6.13;2.90;;;16.20;99.90;;;;;;6213340;23;20273;-81
2023/10/05 10:42:09;;;;;;;13.73;3.07;;;16.10;99.90;;;;;;6213958;23;20191;-81
2023/10/05 10:47:53;;;;;;;10.47;3.10;;;16.10;99.90;;;;;;6210920;23;20174;-80
2023/10/05 10:50:47;;;;;;;8.37;3.30;;;16.10;99.90;;;;;;6234365;23;20547;-80
2023/10/05 10:53:37;;;;;;;11.07;3.00;;;16.10;99.90;;;;;;6215207;23;20186;-81
2023/10/05 10:56:34;;;;;;;8.70;3.10;;;16.10;99.90;;;;;;6097578;23;20183;-80
2023/10/05 10:59:14;;;;;;;8.30;3.20;;;16.00;99.90;;;;;;6096610;23;20207;-81
2023/10/05 11:01:59;;;;;;;8.10;2.80;;;16.00;99.90;;;;;;6096959;23;20220;-81
2023/10/05 11:04:39;;;;;;;8.10;2.87;;;16.00;99.90;;;;;;6089933;23;20437;-82
2023/10/05 11:07:35;;;;;;;6.57;2.87;;;16.00;99.90;;;;;;6090487;23;20268;-80
2023/10/05 11:10:19;;;;;;;6.90;2.80;;;16.00;99.90;;;;;;6097624;23;20175;-82
2023/10/05 11:13:28;;;;;;;8.13;2.80;;;16.20;99.90;;;;;;6120645;23;20284;-80
2023/10/05 11:16:09;;;;;;;7.87;2.80;;;16.20;99.90;;;;;;6096194;23;20177;-78
2023/10/05 11:19:27;;;;;;;9.67;2.77;;;16.30;99.90;;;;;;6097265;23;20229;-80
2023/10/05 11:22:11;;;;;;;7.33;2.80;;;16.40;99.90;;;;;;6097946;23;20667;-80
2023/10/05 11:25:23;;;;;;;8.50;3.13;;;16.40;99.90;;;;;;6105343;23;20168;-80
2023/10/05 11:28:12;;;;;;;6.53;3.10;;;16.50;99.90;;;;;;6099285;23;20317;-80
2023/10/05 11:30:49;;;;;;;10.10;3.00;;;16.70;99.90;;;;;;6098251;23;20153;-80
2023/10/05 11:33:41;;;;;;;9.03;3.43;;;17.00;99.90;;;;;;6077823;23;20613;-80
2023/10/05 11:36:47;;;;;;;12.13;3.30;;;16.90;99.90;;;;;;6096334;23;20280;-80
2023/10/05 11:39:26;;;;;;;8.17;2.73;;;16.80;99.90;;;;;;6132924;23;20226;-79
2023/10/05 11:42:11;;;;;;;10.53;3.53;;;16.70;99.90;;;;;;6211359;23;20190;-80
2023/10/05 11:44:55;;;;;;;6.80;2.67;;;16.70;99.90;;;;;;6212209;23;20181;-81
2023/10/05 11:47:35;;;;;;;6.70;2.83;;;16.80;99.90;;;;;;6218709;23;20173;-81
2023/10/05 11:50:33;;;;;;;9.33;2.97;;;16.70;99.90;;;;;;6212494;23;20171;-81
2023/10/05 11:53:58;;;;;;;7.37;2.80;;;16.70;99.90;;;;;;6185289;23;20182;-82
2023/10/05 11:56:47;;;;;;;11.60;3.27;;;16.90;99.90;;;;;;6093132;23;20478;-81
2023/10/05 11:59:31;;;;;;;10.93;3.00;;;16.60;99.90;;;;;;6119431;23;20180;-82
2023/10/05 12:02:08;;;;;;;5.40;2.70;;;16.70;99.90;;;;;;6097484;23;20204;-82
2023/10/05 12:04:41;;;;;;;9.80;3.37;;;16.70;99.90;;;;;;6122921;23;20205;-80
2023/10/05 12:07:19;;;;;;;7.40;3.20;;;16.80;99.90;;;;;;6097548;23;20295;-81
2023/10/05 12:10:00;;;;;;;8.30;3.10;;;16.70;99.90;;;;;;6121480;23;20212;-81
2023/10/05 12:12:30;;;;;;;9.73;3.47;;;16.70;99.90;;;;;;6122232;23;20252;-83
2023/10/05 12:15:11;;;;;;;9.13;3.10;;;16.60;99.90;;;;;;6121796;23;20186;-82
2023/10/05 12:17:49;;;;;;;10.27;3.50;;;16.70;99.90;;;;;;6122106;23;20179;-81
2023/10/05 12:20:21;;;;;;;9.67;3.20;;;16.90;99.90;;;;;;6097781;23;20224;-81
2023/10/05 12:23:14;;;;;;;10.47;3.30;;;17.00;99.90;;;;;;6076980;23;20278;-81
2023/10/05 12:25:45;;;;;;;9.27;3.20;;;17.20;99.90;;;;;;6098391;23;20180;-81
2023/10/05 12:28:28;;;;;;;8.80;3.47;;;17.30;99.90;;;;;;6098725;23;20267;-83
2023/10/05 12:31:09;;;;;;;12.63;3.80;;;17.20;99.90;;;;;;6151550;23;20271;-81
2023/10/05 12:34:07;;;;;;;8.87;3.43;;;17.20;99.90;;;;;;6191276;23;20175;-81
2023/10/05 12:36:55;;;;;;;7.97;3.20;;;17.10;99.90;;;;;;6210889;23;20212;-82
2023/10/05 12:39:46;;;;;;;9.40;3.20;;;17.10;99.90;;;;;;6217345;23;20560;-80
2023/10/05 12:42:19;;;;;;;7.30;3.10;;;16.80;99.90;;;;;;6244885;23;20252;-79
2023/10/05 12:44:53;;;;;;;10.33;3.43;;;16.90;99.90;;;;;;6211360;23;20170;-80
2023/10/05 12:47:48;;;;;;;10.27;3.80;;;16.80;99.90;;;;;;6232872;23;20257;-79
2023/10/05 12:50:27;;;;;;;9.70;3.20;;;16.70;99.90;;;;;;6191199;23;20171;-80
2023/10/05 12:52:59;;;;;;;7.20;2.97;;;16.70;99.90;;;;;;6212266;23;20169;-80
2023/10/05 12:55:44;;;;;;;9.03;3.40;;;16.80;99.90;;;;;;6205593;23;20175;-84
2023/10/05 12:58:15;;;;;;;8.97;3.30;;;16.70;99.90;;;;;;6216792;23;20173;-81
2023/10/05 13:00:48;;;;;;;8.83;3.57;;;16.70;99.90;;;;;;6214373;23;20258;-81
2023/10/05 13:03:27;;;;;;;10.47;3.27;;;16.70;99.90;;;;;;6194165;23;20642;-81
2023/10/05 13:06:02;;;;;;;7.40;2.70;;;16.70;99.90;;;;;;6214877;23;20198;-81
2023/10/05 13:08:46;;;;;;;8.37;3.40;;;16.60;99.90;;;;;;6190387;23;20177;-81
2023/10/05 13:11:18;;;;;;;8.97;3.17;;;16.60;99.90;;;;;;6191840;23;20175;-81
2023/10/05 13:13:52;;;;;;;7.90;3.27;;;16.60;99.90;;;;;;6190036;23;20642;-79
2023/10/05 13:16:22;;;;;;;8.70;3.40;;;16.60;99.90;;;;;;6217498;23;20513;-80
2023/10/05 13:19:00;;;;;;;10.17;3.23;;;16.50;99.90;;;;;;6214701;23;20261;-80
2023/10/05 13:21:35;;;;;;;7.53;3.00;;;16.40;99.90;;;;;;6202122;23;20200;-81
2023/10/05 13:24:09;;;;;;;6.57;2.90;;;16.50;99.90;;;;;;6189302;23;20172;-79
2023/10/05 13:26:52;;;;;;;7.50;3.10;;;16.60;99.90;;;;;;6245970;23;20163;-80
2023/10/05 13:29:26;;;;;;;9.40;3.07;;;16.40;99.90;;;;;;6246732;23;20241;-79
2023/10/05 13:31:59;;;;;;;7.33;2.90;;;16.40;99.90;;;;;;6214655;23;20270;-81
2023/10/05 13:34:32;;;;;;;9.60;3.33;;;16.40;99.90;;;;;;6245976;23;20194;-79
2023/10/05 13:37:13;;;;;;;9.27;2.67;;;16.40;99.90;;;;;;6216238;23;20572;-81
2023/10/05 13:39:44;;;;;;;6.33;2.83;;;16.20;99.90;;;;;;6214056;23;20207;-80
2023/10/05 13:42:26;;;;;;;8.07;3.00;;;16.20;99.90;;;;;;6217373;23;20189;-80
2023/10/05 13:45:20;;;;;;;8.47;3.07;;;16.20;99.90;;;;;;6195912;23;20174;-80
2023/10/05 13:47:50;;;;;;;8.97;3.03;;;16.20;99.90;;;;;;6220222;23;20185;-81
2023/10/05 13:50:23;;;;;;;9.10;3.23;;;16.10;99.90;;;;;;6194515;23;20175;-81
2023/10/05 13:52:57;;;;;;;8.53;2.90;;;16.00;99.90;;;;;;6220226;23;20197;-80
2023/10/05 13:55:32;;;;;;;9.37;3.10;;;16.10;99.90;;;;;;6195847;23;20175;-81
2023/10/05 13:58:22;;;;;;;7.87;2.90;;;16.00;99.90;;;;;;6224352;23;20150;-81
2023/10/05 14:00:56;;;;;;;5.60;2.90;;;15.90;99.90;;;;;;6195878;23;20608;-79
2023/10/05 14:03:31;;;;;;;7.07;2.83;;;16.00;99.90;;;;;;6195558;23;20285;-80
2023/10/05 14:06:05;;;;;;;11.40;3.73;;;15.90;99.90;;;;;;6195145;23;20190;-80
2023/10/05 14:08:45;;;;;;;6.40;2.87;;;15.80;99.90;;;;;;6098328;23;20204;-78
2023/10/05 14:11:24;;;;;;;7.60;2.43;;;15.70;99.90;;;;;;6122769;23;20173;-83
2023/10/05 14:13:59;;;;;;;8.63;2.80;;;15.80;99.90;;;;;;6075669;23;20173;-82
2023/10/05 14:16:50;;;;;;;9.83;3.07;;;15.70;99.90;;;;;;6076686;23;20184;-79
2023/10/05 14:19:22;;;;;;;8.00;2.80;;;15.50;99.90;;;;;;6074982;23;20621;-81
2023/10/05 14:22:09;;;;;;;8.57;2.77;;;15.30;99.90;;;;;;6095479;23;20201;-82
2023/10/05 14:24:55;;;;;;;9.40;2.93;;;15.20;99.90;;;;;;6094459;23;20180;-81
2023/10/05 14:27:29;;;;;;;8.00;3.00;;;15.10;99.90;;;;;;6172902;23;20205;-79
2023/10/05 14:30:23;;;;;;;5.80;2.77;;;15.10;99.90;;;;;;6224640;23;20194;-79
2023/10/05 14:32:58;;;;;;;12.20;4.10;;;15.10;99.90;;;;;;6245830;23;20166;-80
2023/10/05 14:35:29;;;;;;;6.63;2.87;;;15.00;99.90;;;;;;6244504;23;20241;-76
2023/10/05 14:38:00;;;;;;;9.50;3.47;;;15.00;99.90;;;;;;6219093;23;20169;-74
2023/10/05 14:40:30;;;;;;;9.33;3.13;;;15.00;99.90;;;;;;6213245;23;20245;-78
2023/10/05 14:43:01;;;;;;;8.00;2.80;;;14.90;99.90;;;;;;6213970;23;20194;-79
2023/10/05 14:45:34;;;;;;;10.30;3.27;;;14.90;99.90;;;;;;6215229;23;20163;-77
2023/10/05 14:48:07;;;;;;;8.60;2.97;;;14.80;99.90;;;;;;6214192;23;20178;-76
2023/10/05 14:50:38;;;;;;;8.17;2.97;;;14.80;99.90;;;;;;6213203;23;20255;-77
2023/10/05 14:58:38;;;;;;;6.20;2.73;;;14.60;99.90;;;;;;6237897;22;20213;-80
2023/10/05 15:01:09;;;;;;;11.63;3.30;;;14.40;99.90;;;;;;6245627;23;20192;-80
2023/10/05 15:03:41;;;;;;;6.97;3.20;;;14.30;99.90;;;;;;6193979;23;20339;-81
2023/10/05 15:06:11;;;;;;;13.87;3.30;;;14.20;99.90;;;;;;6218618;23;20190;-78
2023/10/05 15:08:45;;;;;;;10.43;3.20;;;14.20;99.90;;;;;;6219263;23;20173;-81
2023/10/05 15:11:15;;;;;;;10.53;2.83;;;14.00;99.90;;;;;;6245380;23;20220;-78
2023/10/05 15:13:49;;;;;;;6.63;2.67;;;13.90;99.90;;;;;;6218793;23;20496;-80
2023/10/05 15:16:29;;;;;;;8.20;3.23;;;13.80;99.90;;;;;;6220200;23;20475;-79
2023/10/05 15:19:10;;;;;;;6.63;3.00;;;13.60;99.90;;;;;;6244433;23;20232;-80
2023/10/05 15:21:43;;;;;;;9.87;3.20;;;13.60;99.90;;;;;;6218787;23;20235;-80
2023/10/05 15:24:15;;;;;;;8.73;3.37;;;13.50;99.90;;;;;;6217971;23;20521;-82
2023/10/05 15:26:50;;;;;;;7.77;3.43;;;13.40;99.90;;;;;;6217369;23;20194;-82
2023/10/05 15:29:21;;;;;;;7.23;3.40;;;13.40;99.90;;;;;;6217516;23;20194;-79
2023/10/05 15:31:53;;;;;;;8.87;3.53;;;13.40;99.90;;;;;;6244855;23;20175;-74
2023/10/05 15:34:30;;;;;;;9.03;3.27;;;13.40;99.90;;;;;;6217550;23;20257;-80
2023/10/05 15:37:01;;;;;;;9.23;3.70;;;13.40;99.90;;;;;;6217960;23;20200;-78
2023/10/05 15:39:36;;;;;;;9.53;4.30;;;13.40;99.90;;;;;;6244512;23;20159;-78
2023/10/05 15:42:04;;;;;;;11.90;4.10;;;13.30;99.90;;;;;;6244421;23;20491;-82
2023/10/05 15:44:35;;;;;;;9.30;3.90;;;13.20;99.90;;;;;;6218711;23;20170;-81
2023/10/05 15:47:06;;;;;;;9.50;3.93;;;13.20;99.90;;;;;;6217213;23;20228;-80
2023/10/05 15:49:35;;;;;;;10.00;4.23;;;13.20;99.90;;;;;;6218267;23;20201;-79
2023/10/05 15:52:03;;;;;;;9.03;3.80;;;13.10;99.90;;;;;;6217545;23;20273;-82
2023/10/05 15:54:38;;;;;;;11.53;4.27;;;13.00;99.90;;;;;;6219710;23;20178;-77
2023/10/05 15:57:07;;;;;;;12.77;4.77;;;13.00;99.90;;;;;;6194480;23;20454;-79
2023/10/05 15:59:36;;;;;;;10.33;4.07;;;13.10;99.90;;;;;;6243561;23;20174;-83
2023/10/05 16:02:04;;;;;;;12.73;3.87;;;13.20;99.90;;;;;;6243845;23;20167;-86
2023/10/05 16:04:44;;;;;;;11.37;4.33;;;13.20;99.90;;;;;;6241482;23;20189;-81
2023/10/05 16:07:22;;;;;;;15.27;4.03;;;13.20;99.90;;;;;;6246044;23;20234;-79
2023/10/05 17:21:03;;;;;;;11.47;5.47;;;12.80;99.90;;;;;;6246856;22;20664;-82
2023/10/05 17:23:56;;;;;;;11.47;5.30;;;12.70;99.90;;;;;;6273049;22;20189;-83
2023/10/05 17:26:47;;;;;;;12.00;5.53;;;12.70;99.90;;;;;;6274994;22;20192;-85
2023/10/05 17:29:18;;;;;;;14.37;6.27;;;12.70;99.90;;;;;;6245848;22;20166;-85
2023/10/05 17:31:57;;;;;;;12.43;5.40;;;12.60;99.90;;;;;;6223830;22;20228;-84
2023/10/05 17:34:48;;;;;;;13.23;5.50;;;12.50;99.90;;;;;;6248335;22;20177;-81
2023/10/05 17:37:28;;;;;;;12.53;5.73;;;12.60;99.90;;;;;;6248538;22;20188;-84
2023/10/05 17:40:21;;;;;;;16.10;6.33;;;12.60;99.90;;;;;;6250278;22;20162;-84
2023/10/05 17:43:02;;;;;;;16.97;6.50;;;12.50;99.90;;;;;;6249456;22;20276;-82
2023/10/05 17:45:31;;;;;;;16.80;6.17;;;12.60;99.90;;;;;;6249949;22;20224;-81
2023/10/05 17:48:01;;;;;;;13.93;6.23;;;12.50;99.90;;;;;;6276063;22;20219;-83
2023/10/05 17:50:39;;;;;;;12.70;6.30;;;12.40;99.90;;;;;;6225181;22;20162;-82
2023/10/05 17:53:10;;;;;;;11.40;6.63;;;12.50;99.90;;;;;;6249580;22;20200;-82
2023/10/05 17:55:50;;;;;;;14.80;6.10;;;12.50;99.90;;;;;;6250285;22;20433;-79
2023/10/05 17:58:28;;;;;;;13.10;6.90;;;12.40;99.90;;;;;;6276690;22;20176;-81
2023/10/05 18:01:03;;;;;;;14.50;6.87;;;12.40;99.90;;;;;;6251005;22;20603;-82
2023/10/05 18:03:37;;;;;;;15.57;6.77;;;12.30;99.90;;;;;;6249670;22;20628;-81
2023/10/05 18:06:18;;;;;;;14.67;6.20;;;12.40;99.90;;;;;;6224871;22;20244;-82
2023/10/05 18:09:06;;;;;;;13.27;5.97;;;12.40;99.90;;;;;;6226873;22;20196;-82
2023/10/05 18:11:41;;;;;;;11.17;6.00;;;12.40;99.90;;;;;;6225170;22;20488;-81
2023/10/05 18:14:12;;;;;;;13.13;6.50;;;12.40;99.90;;;;;;6223593;22;20177;-82
2023/10/05 18:17:05;;;;;;;16.37;6.43;;;12.30;99.90;;;;;;6222531;22;20205;-83
2023/10/05 18:19:39;;;;;;;14.77;6.50;;;12.30;99.90;;;;;;6275840;22;20155;-83
2023/10/05 18:22:21;;;;;;;;;;;;;;;;;;;;;
2023/10/05 18:25:07;;;;;;;14.27;6.50;;;12.30;99.90;;;;;;6247736;22;20181;-83
2023/10/05 18:27:35;;;;;;;14.70;6.67;;;12.30;99.90;;;;;;6248525;22;20620;-84
2023/10/05 18:30:11;;;;;;;13.83;6.73;;;12.30;99.90;;;;;;6248273;22;20185;-81
2023/10/05 18:32:52;;;;;;;13.63;6.63;;;12.30;99.90;;;;;;6248890;22;20157;-82
2023/10/05 18:35:20;;;;;;;15.63;6.73;;;12.30;99.90;;;;;;6248555;22;20207;-81
2023/10/05 18:37:51;;;;;;;12.67;6.50;;;12.30;99.90;;;;;;6249281;22;20161;-83
2023/10/05 18:40:23;;;;;;;10.83;6.27;;;12.30;99.90;;;;;;6248125;22;20166;-81
2023/10/05 18:42:55;;;;;;;14.53;7.00;;;12.20;99.90;;;;;;6248243;22;20647;-81
2023/10/05 18:45:26;;;;;;;18.57;7.07;;;12.20;99.90;;;;;;6273558;22;20573;-81
2023/10/05 18:48:00;;;;;;;14.53;6.90;;;12.30;99.90;;;;;;6275963;22;20145;-81
2023/10/05 18:50:31;;;;;;;13.70;6.47;;;12.20;99.90;;;;;;6248815;22;20173;-83
2023/10/05 18:53:01;;;;;;;15.07;7.30;;;12.20;99.90;;;;;;6248797;22;20162;-83
2023/10/05 18:55:31;;;;;;;13.63;6.60;;;12.20;99.90;;;;;;6248621;22;20170;-81
2023/10/05 18:58:05;;;;;;;10.73;6.80;;;12.30;99.90;;;;;;6222337;22;20169;-83
2023/10/05 19:00:35;;;;;;;15.43;6.83;;;12.30;99.90;;;;;;6275572;22;20248;-81
2023/10/05 19:03:06;;;;;;;16.07;7.10;;;12.30;99.90;;;;;;6247594;22;20644;-82
2023/10/05 19:05:37;;;;;;;14.83;6.70;;;12.30;99.90;;;;;;6248277;22;20173;-83
2023/10/05 19:08:09;;;;;;;12.37;6.50;;;12.40;99.90;;;;;;6223770;22;20165;-82
2023/10/05 19:10:40;;;;;;;12.37;6.67;;;12.40;99.90;;;;;;6275419;22;20174;-79
2023/10/05 19:13:09;;;;;;;13.30;6.80;;;12.30;99.90;;;;;;6248570;22;20204;-80
2023/10/05 19:15:49;;;;;;;13.47;6.47;;;12.40;99.90;;;;;;6248887;22;20177;-80
2023/10/05 19:18:18;;;;;;;10.37;6.27;;;12.40;99.90;;;;;;6222504;22;20611;-80
2023/10/05 19:20:48;;;;;;;14.17;5.80;;;12.40;99.90;;;;;;6242858;23;20194;-82
2023/10/05 19:23:26;;;;;;;11.57;6.30;;;12.40;99.90;;;;;;6242405;22;20199;-81
2023/10/05 19:26:09;;;;;;;11.40;6.80;;;12.40;99.90;;;;;;6242470;23;20216;-86
2023/10/05 19:28:40;;;;;;;12.60;6.23;;;12.50;99.90;;;;;;6245328;22;20166;-79
2023/10/05 19:31:21;;;;;;;9.87;6.13;;;12.40;99.90;;;;;;6245938;23;20166;-83
2023/10/05 19:34:05;;;;;;;13.00;6.47;;;12.50;99.90;;;;;;6244326;22;20166;-81
2023/10/05 19:36:37;;;;;;;13.93;6.20;;;12.50;99.90;;;;;;6218645;23;20205;-82
2023/10/05 19:39:17;;;;;;;14.27;6.30;;;12.40;99.90;;;;;;6244002;23;20174;-84
2023/10/05 19:42:06;;;;;;;9.93;6.70;;;12.50;99.90;;;;;;6244886;22;20252;-80
2023/10/05 19:44:55;;;;;;;12.50;6.63;;;12.60;99.90;;;;;;6243084;23;20261;-81
2023/10/05 19:47:25;;;;;;;18.53;7.13;;;12.50;99.90;;;;;;6244978;22;20174;-82
2023/10/05 19:50:01;;;;;;;12.23;6.53;;;12.40;99.90;;;;;;6244328;22;20237;-83
2023/10/05 19:52:35;;;;;;;12.43;7.10;;;12.40;99.90;;;;;;6219265;23;20241;-83
2023/10/05 19:55:13;;;;;;;13.20;7.17;;;12.50;99.90;;;;;;6244094;23;20166;-82
2023/10/05 19:57:57;;;;;;;15.07;6.83;;;12.50;99.90;;;;;;6242861;22;20173;-83
2023/10/05 20:01:08;;;;;;;12.70;6.80;;;12.40;99.90;;;;;;6220232;23;20181;-84
2023/10/05 20:03:52;;;;;;;12.67;7.33;;;12.40;99.90;;;;;;6228132;23;20194;-81
2023/10/05 20:07:12;;;;;;;13.67;7.30;;;12.40;99.90;;;;;;6243155;23;20252;-83
2023/10/05 20:09:57;;;;;;;12.83;7.50;;;12.40;99.90;;;;;;6215324;23;20170;-81
2023/10/05 20:12:40;;;;;;;12.90;7.77;;;12.40;99.90;;;;;;6218633;23;20169;-81
2023/10/05 20:15:38;;;;;;;12.90;8.03;;;12.40;99.90;;;;;;6221058;23;20216;-82
2023/10/05 20:18:48;;;;;;;14.33;8.03;;;12.40;99.90;;;;;;6239648;22;20174;-80
2023/10/05 20:21:30;;;;;;;15.17;7.80;;;12.40;99.90;;;;;;6249540;22;20197;-80
2023/10/05 20:24:01;;;;;;;15.47;8.00;;;12.50;99.90;;;;;;6248425;22;20184;-81
2023/10/05 20:26:44;;;;;;;14.03;8.50;;;12.40;99.90;;;;;;6247147;22;20169;-80
2023/10/05 20:29:15;;;;;;;14.27;8.17;;;12.40;99.90;;;;;;6223057;22;20200;-80
2023/10/05 20:31:46;;;;;;;14.53;8.17;;;12.40;99.90;;;;;;6222915;22;20236;-80
2023/10/05 20:34:33;;;;;;;15.73;9.07;;;12.30;99.90;;;;;;6223557;22;20195;-79
2023/10/05 20:37:05;;;;;;;14.87;8.07;;;12.40;99.90;;;;;;6222905;22;20198;-81
2023/10/05 20:39:39;;;;;;;19.30;8.40;;;12.40;99.90;;;;;;6275081;22;20172;-81
2023/10/05 20:42:08;;;;;;;14.60;8.87;;;12.30;99.90;;;;;;6222334;22;20597;-80
2023/10/05 20:44:43;;;;;;;14.47;8.60;;;12.40;99.90;;;;;;6120982;23;20271;-80
2023/10/05 20:47:18;;;;;;;13.27;8.07;;;12.40;99.90;;;;;;6121676;23;20629;-80
2023/10/05 20:49:48;;;;;;;16.13;8.50;;;12.40;99.90;;;;;;6097586;23;20165;-80
2023/10/05 20:52:26;;;;;;;14.63;8.70;;;12.40;99.90;;;;;;6074747;23;20201;-79
2023/10/05 20:54:59;;;;;;;15.77;9.10;;;12.40;99.90;;;;;;6122342;23;20172;-79
2023/10/05 20:57:34;;;;;;;12.83;8.23;;;12.40;99.90;;;;;;6098661;23;20663;-80
2023/10/05 21:00:08;;;;;;;17.30;9.20;;;12.50;99.90;;;;;;6098701;23;20239;-80
2023/10/05 21:02:39;;;;;;;15.60;8.93;;;12.50;99.90;;;;;;6098774;23;20169;-81
2023/10/05 21:05:07;;;;;;;13.97;8.47;;;12.50;99.90;;;;;;6122920;23;20201;-80
2023/10/05 21:11:08;;;;;;;13.80;8.37;;;12.40;99.90;;;;;;6181371;23;20171;-82
2023/10/05 21:13:53;;;;;;;13.27;8.37;;;12.50;99.90;;;;;;6159230;23;20171;-82
2023/10/05 21:16:46;;;;;;;17.37;9.10;;;12.50;99.90;;;;;;6132167;23;20726;-80
2023/10/05 21:19:19;;;;;;;12.33;7.80;;;12.40;99.90;;;;;;6158017;23;20176;-82
2023/10/05 21:22:02;;;;;;;11.90;8.30;;;12.40;99.90;;;;;;6134387;23;20207;-82
2023/10/05 21:24:55;;;;;;;13.93;8.83;;;12.30;99.90;;;;;;6159015;23;20594;-81
2023/10/05 21:27:49;;;;;;;15.20;8.97;;;12.40;99.90;;;;;;6155985;23;20168;-82
2023/10/05 21:30:22;;;;;;;15.43;9.53;;;12.30;99.90;;;;;;6134859;23;20206;-82
2023/10/05 21:33:05;;;;;;;16.90;9.53;;;12.20;99.90;;;;;;6159543;23;20540;-81
2023/10/05 21:35:36;;;;;;;13.80;8.80;;;12.20;99.90;;;;;;6158835;23;20182;-81
2023/10/05 21:38:18;;;;;;;15.17;9.73;;;12.20;99.90;;;;;;6160816;23;20174;-81
2023/10/05 21:40:46;;;;;;;13.53;8.67;;;12.10;99.90;;;;;;6134047;23;20711;-81
2023/10/05 21:43:18;;;;;;;17.43;9.97;;;12.10;99.90;;;;;;6183631;23;20156;-81
2023/10/05 21:45:57;;;;;;;14.87;9.50;;;12.10;99.90;;;;;;6135553;23;20330;-82
2023/10/05 21:48:29;;;;;;;17.93;9.83;;;12.10;99.90;;;;;;6261730;22;20174;-82
2023/10/05 21:51:08;;;;;;;15.17;10.10;;;12.00;99.90;;;;;;6251367;22;20185;-82
2023/10/05 21:53:51;;;;;;;15.17;9.70;;;12.10;99.90;;;;;;6227306;22;20264;-82
2023/10/05 21:56:46;;;;;;;16.70;9.57;;;12.00;99.90;;;;;;6253406;22;20161;-81
2023/10/05 21:59:15;;;;;;;15.67;9.67;;;12.00;99.90;;;;;;6249276;22;20180;-81
2023/10/05 22:01:54;;;;;;;15.43;9.40;;;12.00;99.90;;;;;;6250734;22;20146;-81
2023/10/05 22:04:32;;;;;;;15.10;10.10;;;12.10;99.90;;;;;;6224887;22;20629;-82
2023/10/05 22:07:11;;;;;;;15.80;9.63;;;12.00;99.90;;;;;;6251474;22;20207;-81
2023/10/05 22:09:50;;;;;;;17.50;9.40;;;11.90;99.90;;;;;;6224938;22;20193;-82
2023/10/05 22:12:34;;;;;;;17.03;9.87;;;11.90;99.90;;;;;;6250104;22;20257;-82
2023/10/05 22:15:10;;;;;;;15.33;9.90;;;11.90;99.90;;;;;;6223708;22;20173;-80
2023/10/05 22:17:48;;;;;;;15.93;9.83;;;12.00;99.90;;;;;;6248623;22;20219;-81
2023/10/05 22:20:16;;;;;;;18.57;9.70;;;11.90;99.90;;;;;;6223281;22;20197;-81
2023/10/05 22:22:47;;;;;;;15.17;9.57;;;11.90;99.90;;;;;;6250064;22;20162;-80
2023/10/05 22:25:33;;;;;;;18.60;10.40;;;11.90;99.90;;;;;;6253355;22;20188;-81
2023/10/05 22:28:25;;;;;;;15.80;9.80;;;11.90;99.90;;;;;;6248936;22;20628;-81
2023/10/05 22:31:06;;;;;;;16.47;10.63;;;11.80;99.90;;;;;;6225831;22;20502;-82
2023/10/05 22:33:35;;;;;;;17.63;10.33;;;11.90;99.90;;;;;;6248161;22;20176;-81
2023/10/05 22:36:06;;;;;;;16.13;10.50;;;11.80;99.90;;;;;;6249890;22;20688;-81
2023/10/05 22:38:34;;;;;;;14.73;10.03;;;11.80;99.90;;;;;;6248787;22;20249;-82
2023/10/05 22:41:11;;;;;;;14.60;9.60;;;11.80;99.90;;;;;;6251092;22;20162;-81
2023/10/05 22:43:44;;;;;;;17.73;10.30;;;11.80;99.90;;;;;;6275896;22;20354;-81
2023/10/05 22:46:16;;;;;;;17.70;10.13;;;11.90;99.90;;;;;;6249639;22;20257;-81
2023/10/05 22:48:45;;;;;;;16.90;10.10;;;11.90;99.90;;;;;;6249310;22;20628;-81
2023/10/05 22:51:24;;;;;;;14.00;9.17;;;12.00;99.90;;;;;;6224937;22;20186;-81
2023/10/05 22:53:54;;;;;;;15.77;9.53;;;12.00;99.90;;;;;;6248712;22;20177;-82
2023/10/05 22:56:27;;;;;;;18.23;9.63;;;11.90;99.90;;;;;;6223633;22;20207;-81
2023/10/05 22:59:02;;;;;;;15.27;9.70;;;11.90;99.90;;;;;;6249955;22;20160;-83
2023/10/05 23:01:38;;;;;;;15.63;9.63;;;11.90;99.90;;;;;;6224923;22;20172;-82
2023/10/05 23:04:15;;;;;;;15.97;9.70;;;11.90;99.90;;;;;;6248565;22;20552;-82
2023/10/05 23:06:43;;;;;;;17.20;9.77;;;11.90;99.90;;;;;;6248172;22;20194;-82
2023/10/05 23:09:13;;;;;;;15.30;9.40;;;11.80;99.90;;;;;;6275974;22;20509;-81
2023/10/05 23:11:40;;;;;;;14.20;8.70;;;11.80;99.90;;;;;;6275888;22;20162;-83
2023/10/05 23:14:15;;;;;;;16.33;9.17;;;11.80;99.90;;;;;;6222672;22;20405;-82
2023/10/05 23:16:49;;;;;;;15.77;9.03;;;11.80;99.90;;;;;;6223821;22;20169;-82
2023/10/05 23:19:43;;;;;;;15.43;8.77;;;11.70;99.90;;;;;;6275791;22;20196;-83
2023/10/05 23:22:12;;;;;;;14.47;8.73;;;11.70;99.90;;;;;;6242789;23;20198;-81
2023/10/05 23:24:46;;;;;;;13.73;8.47;;;11.60;99.90;;;;;;6215778;23;20637;-82
2023/10/05 23:27:20;;;;;;;15.43;8.43;;;11.60;99.90;;;;;;6243183;23;20476;-83
2023/10/05 23:29:52;;;;;;;14.13;8.40;;;11.70;99.90;;;;;;6242681;23;20232;-81
2023/10/05 23:32:24;;;;;;;15.70;8.77;;;11.60;99.90;;;;;;6243055;23;20158;-83
2023/10/05 23:35:07;;;;;;;14.40;8.57;;;11.40;99.90;;;;;;6242873;23;20173;-82
2023/10/05 23:37:56;;;;;;;15.30;8.30;;;11.50;99.90;;;;;;6218402;23;20190;-82
2023/10/05 23:40:36;;;;;;;14.67;7.60;;;11.50;99.90;;;;;;6219563;23;20182;-83
2023/10/05 23:43:15;;;;;;;17.27;8.30;;;11.50;99.90;;;;;;6215428;23;20178;-81
2023/10/05 23:48:54;;;;;;;13.53;8.53;;;11.50;99.90;;;;;;6155835;23;20264;-84
2023/10/05 23:51:35;;;;;;;12.63;8.00;;;11.40;99.90;;;;;;6181004;23;20198;-80
2023/10/05 23:54:07;;;;;;;16.60;8.33;;;11.40;99.90;;;;;;6155852;23;20595;-83
2023/10/05 23:57:34;;;;;;;13.43;8.23;;;11.50;99.90;;;;;;6156339;23;20193;-82
